WXM80 ListenWXM80 Stop

You find our weather info also at:

UK Metoffice

WeatherCloud

Weather Underground

Northeastern Weather Network

AWEKAS

Citizen Weather Observer Program (CWOP)

HAMweather, WeatherForYou, PWS Weather


Weather Underground History page Text

Daily Summary for February 28, 2017 Units:  English    Metric   Both
« Previous Day
Next Day »
Daily Weekly Monthly Yearly Custom
  High: Low: Average:
Temperature: 54.2 °F 41.7 °F 46.7 °F
Dew Point: 51.6 °F 36.7 °F 43.1 °F
Humidity: 96 % 77 % 88 %
Wind Speed: 7.0 mph 0.0 mph 1.8 mph
Wind Gust: 11.5 mph - -
Wind:- - ESE
Pressure: 30.37 in 29.97 in -
Precipitation: 0.00 in    
Historical Graphs
 
 
Tabular Data for February 28, 2017
Time Temperature Dew Point Pressure Wind Wind Speed Wind Gust Humidity Rainfall Rate (Hourly)
00:01 43.7 °F 37.3 °F 30.36 in Calm     78 % 0.00 in
00:06 43.5 °F 37.1 °F 30.36 in Calm     78 % 0.00 in
00:11 43.4 °F 36.7 °F 30.36 in SW 1.1 mph 2.0 mph 77 % 0.00 in
00:16 43.2 °F 36.8 °F 30.36 in SW 1.5 mph 3.5 mph 78 % 0.00 in
00:21 43.1 °F 36.7 °F 30.36 in Calm     78 % 0.00 in
00:26 43.0 °F 36.9 °F 30.37 in Calm   1.0 mph 79 % 0.00 in
00:31 42.9 °F 37.2 °F 30.37 in Calm     80 % 0.00 in
00:37 42.8 °F 37.1 °F 30.37 in Calm     80 % 0.00 in
00:42 42.8 °F 37.1 °F 30.37 in SW 0.2 mph 1.2 mph 80 % 0.00 in
00:47 42.8 °F 37.4 °F 30.37 in SW 1.3 mph 3.0 mph 81 % 0.00 in
00:52 42.8 °F 37.1 °F 30.37 in WSW 0.8 mph 3.0 mph 80 % 0.00 in
00:57 42.8 °F 37.4 °F 30.37 in WSW 0.5 mph 2.0 mph 81 % 0.00 in
01:02 42.8 °F 37.4 °F 30.37 in WSW 0.4 mph 2.3 mph 81 % 0.00 in
01:07 42.8 °F 37.4 °F 30.37 in Calm   1.2 mph 81 % 0.00 in
01:12 42.9 °F 37.5 °F 30.36 in WSW 0.1 mph 1.0 mph 81 % 0.00 in
01:17 42.9 °F 37.5 °F 30.36 in Calm   1.2 mph 81 % 0.00 in
01:22 42.9 °F 37.5 °F 30.37 in Calm     81 % 0.00 in
01:27 42.9 °F 37.5 °F 30.36 in Calm   1.2 mph 81 % 0.00 in
01:32 43.0 °F 37.9 °F 30.36 in WSW 0.7 mph 2.3 mph 82 % 0.00 in
01:37 43.1 °F 37.7 °F 30.36 in WSW 0.2 mph 1.2 mph 81 % 0.00 in
01:42 43.1 °F 37.3 °F 30.36 in WSW 0.8 mph 2.3 mph 80 % 0.00 in
01:47 43.2 °F 37.4 °F 30.36 in WSW 1.2 mph 2.3 mph 80 % 0.00 in
01:52 43.3 °F 37.5 °F 30.36 in WSW 0.3 mph 2.0 mph 80 % 0.00 in
01:57 43.4 °F 37.6 °F 30.35 in Calm     80 % 0.00 in
02:02 43.4 °F 37.6 °F 30.35 in Calm     80 % 0.00 in
02:07 43.4 °F 37.6 °F 30.35 in Calm     80 % 0.00 in
02:12 43.5 °F 37.7 °F 30.35 in Calm     80 % 0.00 in
02:17 43.5 °F 37.7 °F 30.35 in Calm     80 % 0.00 in
02:22 43.5 °F 37.7 °F 30.35 in Calm     80 % 0.00 in
02:27 43.5 °F 38.1 °F 30.35 in Calm     81 % 0.00 in
02:33 43.4 °F 37.6 °F 30.34 in Calm     80 % 0.00 in
02:38 43.3 °F 37.5 °F 30.34 in Calm     80 % 0.00 in
02:43 43.3 °F 37.5 °F 30.34 in Calm     80 % 0.00 in
02:48 43.3 °F 37.5 °F 30.33 in Calm     80 % 0.00 in
02:53 43.3 °F 37.9 °F 30.34 in Calm     81 % 0.00 in
02:58 43.2 °F 37.8 °F 30.34 in Calm     81 % 0.00 in
03:03 43.2 °F 37.8 °F 30.34 in Calm     81 % 0.00 in
03:08 43.1 °F 37.7 °F 30.34 in Calm     81 % 0.00 in
03:13 43.2 °F 37.7 °F 30.34 in Calm     81 % 0.00 in
03:18 43.2 °F 38.1 °F 30.34 in Calm     82 % 0.00 in
03:23 43.1 °F 37.7 °F 30.34 in Calm   1.0 mph 81 % 0.00 in
03:28 43.1 °F 37.7 °F 30.33 in Calm   1.0 mph 81 % 0.00 in
03:33 43.1 °F 37.7 °F 30.33 in SW 0.3 mph 3.0 mph 81 % 0.00 in
03:38 43.1 °F 37.7 °F 30.33 in WSW 1.0 mph 2.0 mph 81 % 0.00 in
03:43 43.2 °F 37.7 °F 30.33 in Calm   2.0 mph 81 % 0.00 in
03:48 43.2 °F 38.1 °F 30.33 in SW 1.0 mph 3.0 mph 82 % 0.00 in
03:53 43.3 °F 38.2 °F 30.33 in SW 0.1 mph 1.2 mph 82 % 0.00 in
03:58 43.4 °F 38.3 °F 30.33 in SW 1.0 mph 2.3 mph 82 % 0.00 in
04:03 43.5 °F 38.4 °F 30.33 in Calm   2.3 mph 82 % 0.00 in
04:08 43.6 °F 38.5 °F 30.33 in SW 0.6 mph 2.3 mph 82 % 0.00 in
04:13 43.7 °F 38.6 °F 30.33 in Calm   2.0 mph 82 % 0.00 in
04:18 43.8 °F 38.7 °F 30.33 in Calm   3.0 mph 82 % 0.00 in
04:23 44.0 °F 38.8 °F 30.34 in WSW 1.0 mph 4.0 mph 82 % 0.00 in
04:28 44.1 °F 38.9 °F 30.34 in Calm   2.0 mph 82 % 0.00 in
04:33 44.2 °F 39.0 °F 30.33 in Calm   1.0 mph 82 % 0.00 in
04:38 44.2 °F 39.1 °F 30.33 in Calm   1.0 mph 82 % 0.00 in
04:43 44.3 °F 39.2 °F 30.32 in Calm     82 % 0.00 in
04:48 44.4 °F 38.9 °F 30.33 in Calm     81 % 0.00 in
04:53 44.5 °F 39.0 °F 30.33 in Calm     81 % 0.00 in
04:58 44.5 °F 39.0 °F 30.33 in Calm     81 % 0.00 in
05:03 44.5 °F 39.0 °F 30.34 in Calm   2.3 mph 81 % 0.00 in
05:08 44.5 °F 39.0 °F 30.33 in Calm   1.2 mph 81 % 0.00 in
05:13 44.5 °F 39.0 °F 30.34 in Calm     81 % 0.00 in
05:18 44.5 °F 39.0 °F 30.34 in Calm     81 % 0.00 in
05:21 44.5 °F 39.0 °F 30.34 in Calm     81 % 0.00 in
05:26 44.4 °F 38.9 °F 30.34 in Calm     81 % 0.00 in
05:31 44.4 °F 38.9 °F 30.34 in Calm     81 % 0.00 in
05:36 44.3 °F 38.8 °F 30.34 in Calm     81 % 0.00 in
05:41 44.2 °F 38.7 °F 30.34 in Calm   1.2 mph 81 % 0.00 in
05:46 44.2 °F 38.7 °F 30.34 in Calm     81 % 0.00 in
05:51 44.1 °F 39.0 °F 30.34 in Calm     82 % 0.00 in
05:56 44.0 °F 38.9 °F 30.34 in Calm   1.2 mph 82 % 0.00 in
06:01 43.8 °F 38.3 °F 30.34 in Calm     81 % 0.00 in
06:06 43.7 °F 38.6 °F 30.34 in Calm     82 % 0.00 in
06:11 43.6 °F 38.5 °F 30.34 in Calm     82 % 0.00 in
06:16 43.5 °F 38.4 °F 30.34 in Calm     82 % 0.00 in
06:21 43.3 °F 38.2 °F 30.34 in Calm     82 % 0.00 in
06:26 43.2 °F 38.1 °F 30.33 in Calm     82 % 0.00 in
06:31 43.1 °F 38.3 °F 30.33 in Calm     83 % 0.00 in
06:36 43.0 °F 38.2 °F 30.33 in Calm     83 % 0.00 in
06:41 42.9 °F 38.1 °F 30.33 in Calm     83 % 0.00 in
06:46 42.8 °F 38.3 °F 30.33 in Calm     84 % 0.00 in
06:51 42.7 °F 38.2 °F 30.33 in Calm     84 % 0.00 in
06:56 42.5 °F 38.3 °F 30.32 in Calm     85 % 0.00 in
07:02 42.5 °F 38.3 °F 30.33 in SSW 0.3 mph 1.2 mph 85 % 0.00 in
07:07 42.4 °F 38.5 °F 30.33 in ENE 0.3 mph 1.2 mph 86 % 0.00 in
07:12 42.4 °F 38.5 °F 30.33 in ENE 0.9 mph 2.3 mph 86 % 0.00 in
07:17 42.4 °F 38.8 °F 30.33 in ENE 0.7 mph 2.3 mph 87 % 0.00 in
07:22 42.4 °F 38.8 °F 30.33 in ENE 0.2 mph 2.3 mph 87 % 0.00 in
07:27 42.4 °F 39.1 °F 30.34 in ENE 1.0 mph 2.3 mph 88 % 0.00 in
07:32 42.4 °F 39.1 °F 30.33 in ENE 0.8 mph 2.3 mph 88 % 0.00 in
07:37 42.4 °F 39.1 °F 30.34 in ENE 1.9 mph 3.0 mph 88 % 0.00 in
07:42 42.3 °F 39.0 °F 30.34 in ENE 0.4 mph 2.3 mph 88 % 0.00 in
07:47 42.2 °F 39.2 °F 30.34 in ENE 0.3 mph 1.2 mph 89 % 0.00 in
07:52 42.2 °F 39.2 °F 30.34 in ENE 2.2 mph 3.0 mph 89 % 0.00 in
07:57 42.1 °F 39.1 °F 30.34 in ENE 1.6 mph 2.3 mph 89 % 0.00 in
08:02 42.0 °F 39.0 °F 30.34 in ENE 1.6 mph 2.3 mph 89 % 0.00 in
08:07 41.9 °F 38.9 °F 30.35 in ENE 2.2 mph 3.5 mph 89 % 0.00 in
08:12 41.9 °F 39.2 °F 30.35 in NNE 1.2 mph 3.5 mph 90 % 0.00 in
08:17 41.9 °F 39.2 °F 30.35 in NNE 1.5 mph 2.3 mph 90 % 0.00 in
08:22 41.9 °F 39.2 °F 30.35 in NE 0.4 mph 2.0 mph 90 % 0.00 in
08:27 41.9 °F 39.2 °F 30.35 in ENE 2.2 mph 4.0 mph 90 % 0.00 in
08:32 41.8 °F 39.1 °F 30.34 in ENE 1.7 mph 3.5 mph 90 % 0.00 in
08:37 41.7 °F 39.0 °F 30.34 in ENE 2.6 mph 3.5 mph 90 % 0.00 in
08:42 41.7 °F 39.3 °F 30.34 in ENE 2.7 mph 3.5 mph 91 % 0.00 in
08:47 41.7 °F 39.3 °F 30.34 in ENE 4.0 mph 5.0 mph 91 % 0.00 in
08:52 41.8 °F 39.4 °F 30.34 in ENE 2.2 mph 4.0 mph 91 % 0.00 in
08:57 41.8 °F 39.4 °F 30.34 in East 3.0 mph 4.6 mph 91 % 0.00 in
09:03 42.0 °F 39.6 °F 30.34 in East 3.2 mph 5.0 mph 91 % 0.00 in
09:08 42.1 °F 39.7 °F 30.34 in ENE 4.4 mph 5.0 mph 91 % 0.00 in
09:13 42.2 °F 39.8 °F 30.34 in East 4.4 mph 5.8 mph 91 % 0.00 in
09:18 42.3 °F 39.9 °F 30.33 in East 4.5 mph 5.8 mph 91 % 0.00 in
09:23 42.3 °F 39.9 °F 30.33 in NE 3.5 mph 6.9 mph 91 % 0.00 in
09:28 42.3 °F 39.6 °F 30.33 in East 5.0 mph 6.9 mph 90 % 0.00 in
09:33 42.3 °F 39.9 °F 30.33 in East 5.6 mph 8.0 mph 91 % 0.00 in
09:38 42.4 °F 40.0 °F 30.33 in ENE 2.3 mph 3.5 mph 91 % 0.00 in
09:43 42.5 °F 40.1 °F 30.33 in East 4.1 mph 6.9 mph 91 % 0.00 in
09:48 42.7 °F 40.3 °F 30.33 in ENE 3.0 mph 8.0 mph 91 % 0.00 in
09:53 42.9 °F 40.5 °F 30.33 in ENE 5.0 mph 10.0 mph 91 % 0.00 in
09:58 43.1 °F 40.4 °F 30.33 in ENE 4.8 mph 7.0 mph 90 % 0.00 in
10:03 43.3 °F 40.6 °F 30.32 in ENE 5.1 mph 6.0 mph 90 % 0.00 in
10:08 43.5 °F 40.8 °F 30.32 in East 5.1 mph 8.1 mph 90 % 0.00 in
10:13 43.7 °F 41.0 °F 30.32 in ENE 4.6 mph 6.9 mph 90 % 0.00 in
10:18 43.8 °F 40.8 °F 30.32 in ENE 4.1 mph 4.6 mph 89 % 0.00 in
10:23 44.0 °F 41.0 °F 30.32 in NE 6.8 mph 9.2 mph 89 % 0.00 in
10:28 44.1 °F 41.1 °F 30.32 in ENE 4.8 mph 8.1 mph 89 % 0.00 in
10:33 44.4 °F 41.1 °F 30.32 in ENE 6.6 mph 9.2 mph 88 % 0.00 in
10:38 44.7 °F 41.4 °F 30.32 in ENE 5.7 mph 6.9 mph 88 % 0.00 in
10:43 44.8 °F 41.2 °F 30.31 in ENE 5.6 mph 8.1 mph 87 % 0.00 in
10:48 44.8 °F 41.2 °F 30.31 in NE 3.3 mph 4.6 mph 87 % 0.00 in
10:54 45.1 °F 41.5 °F 30.32 in East 5.2 mph 9.2 mph 87 % 0.00 in
10:59 45.2 °F 41.6 °F 30.32 in NE 1.7 mph 6.0 mph 87 % 0.00 in
11:04 45.3 °F 41.4 °F 30.32 in NE 3.7 mph 5.0 mph 86 % 0.00 in
11:09 45.3 °F 41.4 °F 30.31 in NE 2.9 mph 5.0 mph 86 % 0.00 in
11:14 45.4 °F 41.5 °F 30.32 in ENE 3.5 mph 4.6 mph 86 % 0.00 in
11:19 45.7 °F 41.8 °F 30.32 in NNE 2.0 mph 3.5 mph 86 % 0.00 in
11:21 45.7 °F 41.8 °F 30.31 in NE 2.8 mph 5.0 mph 86 % 0.00 in
11:26 45.7 °F 41.4 °F 30.31 in NE 3.0 mph 4.6 mph 85 % 0.00 in
11:31 45.8 °F 41.5 °F 30.31 in NE 2.2 mph 3.5 mph 85 % 0.00 in
11:36 45.6 °F 41.4 °F 30.31 in East 2.3 mph 3.5 mph 85 % 0.00 in
11:41 45.4 °F 41.2 °F 30.31 in NE 3.6 mph 4.6 mph 85 % 0.00 in
11:46 45.4 °F 41.2 °F 30.30 in NE 3.2 mph 6.9 mph 85 % 0.00 in
11:51 45.5 °F 41.3 °F 30.29 in East 4.0 mph 6.9 mph 85 % 0.00 in
11:56 46.0 °F 42.3 °F 30.29 in NE 4.0 mph 5.0 mph 87 % 0.00 in
12:01 46.1 °F 41.8 °F 30.28 in East 5.1 mph 6.9 mph 85 % 0.00 in
12:06 46.0 °F 41.7 °F 30.28 in ENE 3.5 mph 5.8 mph 85 % 0.00 in
12:11 46.1 °F 41.8 °F 30.28 in ENE 4.4 mph 5.8 mph 85 % 0.00 in
12:16 46.5 °F 42.5 °F 30.28 in East 3.5 mph 5.8 mph 86 % 0.00 in
12:21 46.9 °F 42.3 °F 30.27 in ENE 3.3 mph 6.9 mph 84 % 0.00 in
12:26 46.7 °F 42.1 °F 30.26 in NE 4.8 mph 8.1 mph 84 % 0.00 in
12:31 46.4 °F 41.8 °F 30.26 in ENE 3.9 mph 5.8 mph 84 % 0.00 in
12:37 46.6 °F 42.3 °F 30.26 in NE 2.8 mph 4.6 mph 85 % 0.00 in
12:42 46.8 °F 42.5 °F 30.26 in NE 4.9 mph 8.1 mph 85 % 0.00 in
12:47 46.6 °F 42.0 °F 30.26 in ENE 3.9 mph 8.1 mph 84 % 0.00 in
12:52 46.6 °F 42.3 °F 30.26 in ENE 3.5 mph 5.0 mph 85 % 0.00 in
12:57 46.6 °F 42.3 °F 30.25 in ENE 2.6 mph 5.0 mph 85 % 0.00 in
13:02 47.0 °F 42.7 °F 30.25 in ENE 2.9 mph 5.8 mph 85 % 0.00 in
13:07 47.3 °F 43.0 °F 30.25 in East 2.5 mph 6.9 mph 85 % 0.00 in
13:12 47.7 °F 43.4 °F 30.25 in NE 1.9 mph 4.6 mph 85 % 0.00 in
13:17 48.1 °F 43.5 °F 30.24 in NE 3.1 mph 5.0 mph 84 % 0.00 in
13:20 48.0 °F 43.1 °F 30.24 in ENE 2.2 mph 4.6 mph 83 % 0.00 in
13:25 47.9 °F 43.0 °F 30.24 in ENE 2.3 mph 3.5 mph 83 % 0.00 in
13:30 47.9 °F 43.3 °F 30.24 in NE 4.0 mph 4.6 mph 84 % 0.00 in
13:35 47.7 °F 43.1 °F 30.23 in NE 5.2 mph 8.1 mph 84 % 0.00 in
13:40 47.8 °F 43.2 °F 30.22 in ENE 3.6 mph 4.6 mph 84 % 0.00 in
13:45 47.8 °F 43.5 °F 30.22 in NE 4.0 mph 4.6 mph 85 % 0.00 in
13:50 47.8 °F 43.2 °F 30.21 in NE 4.1 mph 6.9 mph 84 % 0.00 in
13:55 47.9 °F 43.3 °F 30.21 in ENE 3.1 mph 6.9 mph 84 % 0.00 in
14:01 47.8 °F 43.2 °F 30.22 in ENE 3.5 mph 6.9 mph 84 % 0.00 in
14:06 47.8 °F 43.5 °F 30.21 in ENE 3.5 mph 5.0 mph 85 % 0.00 in
14:11 47.8 °F 43.5 °F 30.22 in NE 3.0 mph 3.5 mph 85 % 0.00 in
14:16 47.7 °F 43.4 °F 30.21 in ENE 1.2 mph 3.5 mph 85 % 0.00 in
14:21 47.7 °F 43.4 °F 30.21 in ENE 3.3 mph 4.0 mph 85 % 0.00 in
14:26 47.4 °F 43.1 °F 30.21 in NE 3.1 mph 4.0 mph 85 % 0.00 in
14:31 47.1 °F 42.8 °F 30.20 in ENE 3.5 mph 5.0 mph 85 % 0.00 in
14:36 46.9 °F 42.9 °F 30.20 in ENE 1.7 mph 3.5 mph 86 % 0.00 in
14:41 46.8 °F 43.1 °F 30.20 in ENE 4.5 mph 7.0 mph 87 % 0.00 in
14:46 46.8 °F 43.4 °F 30.21 in ENE 3.1 mph 3.5 mph 88 % 0.00 in
14:51 46.9 °F 43.5 °F 30.20 in NE 2.1 mph 3.5 mph 88 % 0.00 in
14:56 47.0 °F 43.6 °F 30.20 in ENE 1.5 mph 3.5 mph 88 % 0.00 in
15:01 47.0 °F 43.6 °F 30.19 in ENE 1.4 mph 3.5 mph 88 % 0.00 in
15:06 47.0 °F 43.6 °F 30.19 in NE 3.8 mph 5.0 mph 88 % 0.00 in
15:11 46.9 °F 43.5 °F 30.18 in ENE 1.9 mph 3.5 mph 88 % 0.00 in
15:16 47.0 °F 43.6 °F 30.18 in NNE 1.9 mph 3.5 mph 88 % 0.00 in
15:21 47.0 °F 43.6 °F 30.18 in NNE 2.9 mph 3.5 mph 88 % 0.00 in
15:26 46.9 °F 43.5 °F 30.17 in NE 0.9 mph 2.3 mph 88 % 0.00 in
15:31 46.7 °F 43.3 °F 30.17 in ENE 2.1 mph 3.5 mph 88 % 0.00 in
15:36 46.6 °F 43.2 °F 30.16 in NE 1.2 mph 3.5 mph 88 % 0.00 in
15:41 46.5 °F 43.1 °F 30.16 in NE 0.9 mph 2.3 mph 88 % 0.00 in
15:47 46.4 °F 43.0 °F 30.16 in NE 0.7 mph 3.5 mph 88 % 0.00 in
15:52 46.5 °F 43.4 °F 30.16 in NE 0.9 mph 2.3 mph 89 % 0.00 in
15:57 46.5 °F 43.4 °F 30.16 in NE 1.7 mph 3.5 mph 89 % 0.00 in
16:02 46.7 °F 43.6 °F 30.16 in NE 0.6 mph 3.5 mph 89 % 0.00 in
16:03 46.7 °F 43.6 °F 30.15 in North 0.7 mph 3.0 mph 89 % 0.00 in
16:08 46.8 °F 43.7 °F 30.14 in North 0.7 mph 2.3 mph 89 % 0.00 in
16:13 46.9 °F 43.8 °F 30.14 in North 2.2 mph 3.5 mph 89 % 0.00 in
16:18 47.0 °F 43.9 °F 30.14 in North 1.0 mph 4.0 mph 89 % 0.00 in
16:23 47.1 °F 44.0 °F 30.14 in Calm   1.0 mph 89 % 0.00 in
16:28 47.3 °F 44.3 °F 30.14 in ESE 1.0 mph 7.0 mph 89 % 0.00 in
16:33 47.7 °F 44.9 °F 30.14 in SSE 2.0 mph 6.0 mph 90 % 0.00 in
16:38 48.6 °F 46.7 °F 30.14 in SSE 2.0 mph 5.0 mph 93 % 0.00 in
16:43 49.3 °F 47.4 °F 30.14 in SSE 2.0 mph 5.0 mph 93 % 0.00 in
16:48 50.4 °F 48.7 °F 30.14 in Calm   3.0 mph 94 % 0.00 in
16:53 51.2 °F 49.5 °F 30.14 in SSE 5.0 mph 9.0 mph 94 % 0.00 in
16:58 52.0 °F 50.3 °F 30.14 in SSE 5.2 mph 5.8 mph 94 % 0.00 in
17:03 52.6 °F 50.6 °F 30.15 in SSW 1.5 mph 4.6 mph 93 % 0.00 in
17:08 52.9 °F 50.6 °F 30.15 in South 1.2 mph 4.6 mph 92 % 0.00 in
17:13 53.3 °F 51.0 °F 30.15 in SE 0.4 mph 2.3 mph 92 % 0.00 in
17:18 53.6 °F 51.3 °F 30.15 in South 1.0 mph 3.5 mph 92 % 0.00 in
17:23 53.9 °F 51.3 °F 30.15 in SSE 0.3 mph 3.5 mph 91 % 0.00 in
17:28 54.0 °F 51.4 °F 30.15 in South 2.3 mph 5.8 mph 91 % 0.00 in
17:33 54.1 °F 51.5 °F 30.15 in SSE 3.6 mph 6.9 mph 91 % 0.00 in
17:38 54.2 °F 51.6 °F 30.15 in South 2.1 mph 4.6 mph 91 % 0.00 in
17:43 54.2 °F 51.3 °F 30.16 in SSW 1.7 mph 3.5 mph 90 % 0.00 in
17:48 54.1 °F 51.5 °F 30.15 in South 1.6 mph 3.5 mph 91 % 0.00 in
17:54 54.1 °F 51.5 °F 30.15 in South 1.1 mph 3.5 mph 91 % 0.00 in
17:59 54.0 °F 51.1 °F 30.15 in SE 0.6 mph 2.3 mph 90 % 0.00 in
18:04 53.7 °F 50.2 °F 30.15 in Calm     88 % 0.00 in
18:09 53.5 °F 50.3 °F 30.15 in South 3.1 mph 6.9 mph 89 % 0.00 in
18:14 53.5 °F 50.6 °F 30.15 in SSE 0.1 mph 1.2 mph 90 % 0.00 in
18:19 53.2 °F 49.7 °F 30.15 in ENE 0.5 mph 3.5 mph 88 % 0.00 in
18:24 52.9 °F 49.7 °F 30.14 in South 0.5 mph 3.5 mph 89 % 0.00 in
18:29 52.9 °F 50.0 °F 30.15 in Calm     90 % 0.00 in
18:34 52.6 °F 49.4 °F 30.14 in Calm   1.2 mph 89 % 0.00 in
18:39 52.5 °F 49.4 °F 30.13 in East 1.5 mph 3.5 mph 89 % 0.00 in
18:44 51.9 °F 48.2 °F 30.13 in Calm     87 % 0.00 in
18:49 51.5 °F 47.5 °F 30.13 in SE 0.4 mph 2.3 mph 86 % 0.00 in
18:54 51.3 °F 48.2 °F 30.13 in SSE 0.8 mph 2.3 mph 89 % 0.00 in
19:04 51.5 °F 49.5 °F 30.12 in SSE 2.6 mph 5.8 mph 93 % 0.00 in
19:09 51.8 °F 50.1 °F 30.11 in SSE 1.3 mph 3.5 mph 94 % 0.00 in
19:14 52.0 °F 50.6 °F 30.11 in SSE 1.2 mph 4.6 mph 95 % 0.00 in
19:19 52.1 °F 50.7 °F 30.12 in SSE 2.5 mph 5.0 mph 95 % 0.00 in
19:24 52.2 °F 50.8 °F 30.11 in South 3.3 mph 5.0 mph 95 % 0.00 in
19:29 52.2 °F 50.8 °F 30.11 in SSW 1.7 mph 1.7 mph 95 % 0.00 in
19:34 52.2 °F 50.8 °F 30.11 in SSW 3.0 mph 4.6 mph 95 % 0.00 in
19:39 52.2 °F 50.8 °F 30.11 in South 2.9 mph 4.6 mph 95 % 0.00 in
19:44 52.2 °F 50.8 °F 30.12 in South 0.6 mph 2.3 mph 95 % 0.00 in
19:49 52.2 °F 50.8 °F 30.11 in SSE 4.2 mph 6.9 mph 95 % 0.00 in
19:54 52.2 °F 51.1 °F 30.11 in SSE 3.2 mph 5.0 mph 96 % 0.00 in
20:00 52.1 °F 51.0 °F 30.12 in South 0.8 mph 4.6 mph 96 % 0.00 in
20:05 52.1 °F 50.7 °F 30.11 in SSE 2.5 mph 9.0 mph 95 % 0.00 in
20:10 52.1 °F 50.7 °F 30.11 in SSE 0.3 mph 3.5 mph 95 % 0.00 in
20:15 52.1 °F 51.0 °F 30.11 in SSE 1.6 mph 3.5 mph 96 % 0.00 in
20:20 52.0 °F 50.9 °F 30.11 in SE 1.8 mph 4.0 mph 96 % 0.00 in
20:25 51.9 °F 50.8 °F 30.10 in SSW 2.2 mph 4.0 mph 96 % 0.00 in
20:30 51.8 °F 50.7 °F 30.10 in South 1.9 mph 4.6 mph 96 % 0.00 in
20:35 51.7 °F 50.6 °F 30.09 in ESE 3.6 mph 5.8 mph 96 % 0.00 in
20:40 51.6 °F 50.5 °F 30.09 in SSE 2.9 mph 5.8 mph 96 % 0.00 in
20:45 51.6 °F 50.5 °F 30.09 in South 2.7 mph 6.0 mph 96 % 0.00 in
20:50 51.5 °F 50.4 °F 30.08 in South 3.7 mph 8.0 mph 96 % 0.00 in
20:55 51.5 °F 50.4 °F 30.08 in SSW 7.0 mph 11.5 mph 96 % 0.00 in
21:00 51.4 °F 50.3 °F 30.08 in SSE 3.1 mph 6.9 mph 96 % 0.00 in
21:05 51.4 °F 50.3 °F 30.07 in South 2.6 mph 6.9 mph 96 % 0.00 in
21:10 51.4 °F 50.3 °F 30.07 in South 1.7 mph 5.0 mph 96 % 0.00 in
21:15 51.3 °F 50.2 °F 30.07 in SSW 2.7 mph 5.0 mph 96 % 0.00 in
21:20 51.3 °F 50.2 °F 30.07 in South 2.1 mph 6.9 mph 96 % 0.00 in
21:25 51.2 °F 50.1 °F 30.07 in SSW 1.2 mph 7.0 mph 96 % 0.00 in
21:30 51.2 °F 50.1 °F 30.07 in SSW 1.5 mph 3.5 mph 96 % 0.00 in
21:35 51.2 °F 50.1 °F 30.06 in SSW 2.9 mph 5.0 mph 96 % 0.00 in
21:40 51.2 °F 50.1 °F 30.06 in SSW 0.6 mph 4.6 mph 96 % 0.00 in
21:45 51.3 °F 50.2 °F 30.06 in South 0.9 mph 3.5 mph 96 % 0.00 in
21:51 51.3 °F 50.2 °F 30.05 in SSE 1.7 mph 3.5 mph 96 % 0.00 in
21:56 51.3 °F 50.2 °F 30.05 in SSE 1.3 mph 3.5 mph 96 % 0.00 in
22:01 51.3 °F 50.2 °F 30.06 in South 0.9 mph 2.3 mph 96 % 0.00 in
22:06 51.4 °F 50.3 °F 30.05 in South 1.6 mph 3.5 mph 96 % 0.00 in
22:11 51.4 °F 50.3 °F 30.04 in South 2.1 mph 3.5 mph 96 % 0.00 in
22:16 51.4 °F 50.3 °F 30.03 in SSE 1.9 mph 6.0 mph 96 % 0.00 in
22:21 51.4 °F 50.3 °F 30.02 in South 2.5 mph 3.5 mph 96 % 0.00 in
22:26 51.4 °F 50.3 °F 30.02 in South 3.6 mph 5.8 mph 96 % 0.00 in
22:31 51.5 °F 50.4 °F 30.01 in South 1.5 mph 3.5 mph 96 % 0.00 in
22:36 51.5 °F 50.4 °F 30.01 in SSW 4.1 mph 5.0 mph 96 % 0.00 in
22:41 51.5 °F 50.4 °F 30.01 in SSW 0.7 mph 3.5 mph 96 % 0.00 in
22:46 51.5 °F 50.4 °F 30.00 in South 0.8 mph 2.3 mph 96 % 0.00 in
22:51 51.5 °F 50.4 °F 30.00 in SSW 1.1 mph 3.5 mph 96 % 0.00 in
23:10 51.7 °F 50.6 °F 30.00 in SSW 2.5 mph 4.0 mph 96 % 0.00 in
23:15 51.7 °F 50.6 °F 30.00 in Calm   2.3 mph 96 % 0.00 in
23:20 51.7 °F 50.6 °F 29.99 in SSW 0.9 mph 2.3 mph 96 % 0.00 in
23:25 51.8 °F 50.7 °F 29.99 in SSW 1.9 mph 2.3 mph 96 % 0.00 in
23:30 51.8 °F 50.7 °F 29.99 in SW 1.7 mph 3.5 mph 96 % 0.00 in
23:35 51.9 °F 50.8 °F 29.98 in SSW 0.5 mph   96 % 0.00 in
23:40 51.9 °F 50.8 °F 29.98 in SSW 0.9 mph 3.5 mph 96 % 0.00 in
23:45 52.0 °F 50.6 °F 29.98 in SSW 2.2 mph 3.5 mph 95 % 0.00 in
23:50 52.1 °F 50.7 °F 29.98 in South 3.0 mph 5.8 mph 95 % 0.00 in
23:55 52.1 °F 51.0 °F 29.97 in South 1.5 mph 5.8 mph 96 % 0.00 in
Crab Meadow Weather
Compliments of Weather Underground - 3 mb

Script developed by  Jim McMurry - jmcmurry@mwt.net Adapted for the template by  Wim van der Kuil - Leuven-Template.eu

Weather Terms: Freezing Rain/Freezing Drizzle - Rain or drizzle which falls in liquid form and freezes on impact with cold surfaces to form a glaze on the ground and exposed objects.